createdAt,value
2022-09-01T00:01:29.152Z,52.68
2022-09-01T00:04:03.633Z,52.64
2022-09-01T00:06:32.901Z,52.29
2022-09-01T00:09:01.682Z,52.30
2022-09-01T00:11:29.995Z,52.58
2022-09-01T00:13:59.440Z,52.44
2022-09-01T00:16:27.364Z,52.38
2022-09-01T00:18:55.627Z,52.40
2022-09-01T00:21:25.036Z,52.43
2022-09-01T00:23:53.065Z,52.42
2022-09-01T00:26:21.026Z,52.33
2022-09-01T00:28:49.712Z,52.49
2022-09-01T00:31:20.154Z,52.75
2022-09-01T00:33:48.506Z,52.42
2022-09-01T00:36:16.457Z,52.70
2022-09-01T00:38:44.655Z,52.40
2022-09-01T00:41:12.994Z,52.33
2022-09-01T00:43:42.010Z,52.36
2022-09-01T00:46:13.089Z,52.54
2022-09-01T00:48:42.442Z,52.42
2022-09-01T00:51:12.412Z,52.42
2022-09-01T00:53:41.173Z,52.54
2022-09-01T00:56:09.166Z,52.53
2022-09-01T00:58:37.287Z,52.66
2022-09-01T01:01:05.438Z,52.55
2022-09-01T01:03:34.061Z,52.79
2022-09-01T01:06:08.301Z,52.71
2022-09-01T01:08:38.659Z,52.76
2022-09-01T01:11:07.596Z,52.84
2022-09-01T01:13:49.455Z,52.89
2022-09-01T01:16:17.466Z,52.82
2022-09-01T01:18:45.457Z,52.93
2022-09-01T01:21:34.350Z,53.11
2022-09-01T01:24:03.756Z,53.27
2022-09-01T01:26:33.081Z,53.25
2022-09-01T01:29:03.731Z,53.31
2022-09-01T01:31:32.857Z,53.37
2022-09-01T01:34:00.795Z,53.40
2022-09-01T01:36:32.609Z,53.41
2022-09-01T01:39:02.004Z,53.26
2022-09-01T01:41:30.179Z,53.21
2022-09-01T01:43:59.594Z,53.35
2022-09-01T01:46:27.584Z,53.35
2022-09-01T01:48:55.719Z,54.01
2022-09-01T01:51:26.854Z,53.96
2022-09-01T01:53:55.312Z,53.91
2022-09-01T01:56:25.540Z,53.89
2022-09-01T01:58:56.527Z,54.02
2022-09-01T02:01:28.784Z,54.12
2022-09-01T02:03:57.017Z,54.08
2022-09-01T02:06:28.687Z,54.17
2022-09-01T02:08:57.954Z,54.25
2022-09-01T02:11:26.743Z,54.52
2022-09-01T02:13:56.227Z,54.34
2022-09-01T02:16:25.786Z,54.30
2022-09-01T02:18:54.009Z,54.20
2022-09-01T02:21:23.757Z,54.07
2022-09-01T02:24:00.307Z,54.01
2022-09-01T02:26:32.198Z,54.01
2022-09-01T02:29:02.009Z,54.18
2022-09-01T02:31:32.094Z,54.29
2022-09-01T02:34:01.207Z,54.38
2022-09-01T02:36:32.732Z,54.31
2022-09-01T02:39:00.695Z,54.32
2022-09-01T02:41:32.320Z,54.36
2022-09-01T02:44:02.513Z,54.40
2022-09-01T02:46:31.975Z,54.27
2022-09-01T02:49:00.768Z,54.16
2022-09-01T02:51:28.859Z,54.22
2022-09-01T02:53:56.806Z,54.23
2022-09-01T02:56:25.899Z,54.11
2022-09-01T02:58:54.016Z,54.34
2022-09-01T03:01:25.592Z,54.13
2022-09-01T03:03:55.923Z,54.09
2022-09-01T03:06:24.476Z,54.16
2022-09-01T03:08:53.053Z,54.23
2022-09-01T03:11:21.008Z,54.40
2022-09-01T03:13:48.926Z,54.23
2022-09-01T03:16:17.301Z,54.32
2022-09-01T03:18:45.288Z,54.41
2022-09-01T03:21:17.323Z,54.44
2022-09-01T03:23:45.580Z,54.43
2022-09-01T03:26:13.545Z,54.26
2022-09-01T03:28:41.574Z,54.27
2022-09-01T03:31:10.068Z,54.28
2022-09-01T03:33:38.129Z,54.38
2022-09-01T03:36:08.392Z,54.12
2022-09-01T03:38:48.810Z,54.09
2022-09-01T03:41:17.855Z,54.21
2022-09-01T03:43:47.066Z,54.30
2022-09-01T03:46:20.328Z,54.15
2022-09-01T03:48:50.052Z,54.46
2022-09-01T03:51:18.545Z,54.54
2022-09-01T03:53:47.914Z,54.42
2022-09-01T03:56:16.681Z,54.50
2022-09-01T03:58:47.396Z,54.64
2022-09-01T04:01:16.147Z,54.35
2022-09-01T04:03:44.953Z,54.51
2022-09-01T04:06:13.706Z,54.54
2022-09-01T04:08:43.012Z,54.46
2022-09-01T04:11:16.516Z,54.47
2022-09-01T04:13:44.440Z,54.06
2022-09-01T04:16:40.542Z,54.09
2022-09-01T04:19:16.115Z,54.36
2022-09-01T04:21:44.975Z,54.50
2022-09-01T04:24:14.891Z,54.66
2022-09-01T04:26:46.072Z,55.01
2022-09-01T04:29:14.014Z,54.55
2022-09-01T04:31:42.587Z,54.88
2022-09-01T04:34:13.979Z,54.67
2022-09-01T04:36:43.666Z,54.55
2022-09-01T04:39:13.309Z,54.49
2022-09-01T04:41:46.250Z,54.84
2022-09-01T04:44:15.804Z,54.67
2022-09-01T04:46:46.456Z,54.54
2022-09-01T04:49:19.437Z,54.46
2022-09-01T04:51:53.412Z,54.67
2022-09-01T04:54:21.850Z,54.50
2022-09-01T04:56:52.574Z,54.48
2022-09-01T04:59:21.891Z,54.50
2022-09-01T05:01:50.729Z,54.50
2022-09-01T05:04:20.620Z,54.42
2022-09-01T05:06:50.367Z,54.55
2022-09-01T05:09:18.615Z,54.20
2022-09-01T05:11:47.224Z,53.98
2022-09-01T05:14:18.518Z,54.02
2022-09-01T05:16:46.507Z,54.22
2022-09-01T05:19:15.674Z,54.21
2022-09-01T05:21:45.482Z,54.31
2022-09-01T05:24:14.788Z,53.98
2022-09-01T05:26:44.311Z,54.07
2022-09-01T05:29:16.032Z,53.92
2022-09-01T05:31:46.944Z,53.91
2022-09-01T05:34:20.057Z,54.49
2022-09-01T05:36:50.902Z,54.75
2022-09-01T05:39:18.796Z,54.31
2022-09-01T05:41:48.127Z,54.40
2022-09-01T05:44:18.450Z,54.58
2022-09-01T05:46:47.816Z,54.89
2022-09-01T05:49:18.903Z,54.44
2022-09-01T05:51:50.518Z,54.47
2022-09-01T05:54:19.204Z,54.42
2022-09-01T05:56:47.358Z,54.63
2022-09-01T05:59:24.420Z,54.26
2022-09-01T06:01:54.625Z,54.37
2022-09-01T06:04:23.021Z,54.20
2022-09-01T06:07:08.582Z,54.25
2022-09-01T06:09:39.325Z,54.29
2022-09-01T06:12:07.678Z,54.19
2022-09-01T06:14:35.592Z,54.05
2022-09-01T06:17:04.901Z,54.06
2022-09-01T06:19:37.125Z,54.14
2022-09-01T06:22:05.439Z,54.41
2022-09-01T06:24:33.351Z,53.96
2022-09-01T06:27:01.298Z,53.93
2022-09-01T06:29:31.362Z,53.74
2022-09-01T06:32:02.398Z,53.83
2022-09-01T06:34:31.997Z,53.66
2022-09-01T06:36:59.917Z,53.42
2022-09-01T06:39:27.841Z,53.32
2022-09-01T06:41:56.110Z,53.71
2022-09-01T06:44:24.665Z,53.32
2022-09-01T06:46:53.166Z,53.19
2022-09-01T06:49:21.504Z,53.24
2022-09-01T06:51:52.832Z,53.03
2022-09-01T06:54:21.686Z,53.02
2022-09-01T06:56:51.695Z,52.94
2022-09-01T06:59:20.775Z,52.96
2022-09-01T07:01:52.939Z,52.85
2022-09-01T07:04:22.168Z,52.73
2022-09-01T07:07:53.832Z,52.79
2022-09-01T07:09:47.840Z,52.65
2022-09-01T07:12:26.985Z,52.49
2022-09-01T07:17:47.390Z,52.62
2022-09-01T07:20:25.945Z,52.48
2022-09-01T07:23:04.189Z,52.41
2022-09-01T07:26:00.666Z,52.28
2022-09-01T07:28:25.307Z,52.32
2022-09-01T07:30:54.097Z,52.33
2022-09-01T07:36:28.992Z,52.16
2022-09-01T07:44:38.796Z,51.98
2022-09-01T07:50:37.425Z,51.95
2022-09-01T07:52:49.624Z,51.94
2022-09-01T07:55:19.201Z,51.92
2022-09-01T07:57:47.113Z,51.90
2022-09-01T08:00:18.339Z,51.79
2022-09-01T08:02:47.087Z,51.83
2022-09-01T08:05:17.843Z,51.81
2022-09-01T08:07:54.635Z,51.50
2022-09-01T08:10:24.050Z,51.63
2022-09-01T08:12:58.979Z,51.67
2022-09-01T08:16:06.814Z,51.41
2022-09-01T08:18:15.463Z,51.50
2022-09-01T08:20:45.559Z,51.41
2022-09-01T08:23:13.934Z,51.46
2022-09-01T08:25:45.160Z,51.29
2022-09-01T08:28:13.358Z,51.47
2022-09-01T08:30:41.999Z,51.23
2022-09-01T08:33:20.008Z,51.35
2022-09-01T08:35:49.831Z,51.21
2022-09-01T08:38:17.769Z,51.17
2022-09-01T08:40:56.333Z,51.26
2022-09-01T08:43:28.803Z,51.00
2022-09-01T08:45:57.989Z,50.97
2022-09-01T08:49:23.221Z,50.97
2022-09-01T08:51:20.276Z,50.94
2022-09-01T08:53:50.761Z,50.83
2022-09-01T08:56:20.124Z,50.88
2022-09-01T08:58:48.251Z,50.78
2022-09-01T09:01:21.887Z,50.97
2022-09-01T09:03:53.808Z,50.71
2022-09-01T09:06:25.498Z,50.62
2022-09-01T09:08:55.554Z,50.72
2022-09-01T09:11:51.505Z,50.67
2022-09-01T09:14:49.528Z,50.49
2022-09-01T09:17:17.529Z,50.25
2022-09-01T09:19:45.647Z,50.45
2022-09-01T09:22:14.664Z,50.33
2022-09-01T09:24:50.296Z,50.29
2022-09-01T09:27:21.166Z,50.11
2022-09-01T09:29:50.990Z,49.99
2022-09-01T09:32:22.855Z,49.96
2022-09-01T09:34:52.757Z,49.40
2022-09-01T09:37:25.377Z,49.76
2022-09-01T09:40:08.547Z,49.38
2022-09-01T09:42:39.796Z,49.56
2022-09-01T09:45:14.935Z,49.26
2022-09-01T09:47:44.912Z,49.23
2022-09-01T09:50:23.776Z,49.10
2022-09-01T09:52:52.330Z,48.82
2022-09-01T09:55:23.713Z,48.68
2022-09-01T09:57:55.619Z,48.89
2022-09-01T10:00:25.629Z,48.61
2022-09-01T10:02:58.953Z,48.36
2022-09-01T10:05:30.761Z,48.40
2022-09-01T10:07:59.484Z,48.19
2022-09-01T10:10:30.309Z,48.29
2022-09-01T10:13:00.568Z,48.18
2022-09-01T10:15:30.956Z,48.02
